Time;durP1;ratioP1;P1;durP2;ratioP2;P2;SDS_P1;SDS_P2;PMS_P1;PMS_P2;Temp;Humidity;BMP_temperature;BMP_pressure;BME280_temperature;BME280_humidity;BME280_pressure;Samples;Min_cycle;Max_cycle;Signal;HPM_P1;HPM_P2
2022/09/08 00:00:32;;;;;;;;;;;16.40;99.90;;;;;;5078916;28;19928;-79
2022/09/08 00:03:00;;;;;;;;;;;16.40;99.90;;;;;;5081130;28;20636;-80
2022/09/08 00:05:26;;;;;;;;;;;16.40;99.90;;;;;;5081801;28;20007;-79
2022/09/08 00:07:53;;;;;;;;;;;16.30;99.90;;;;;;5082659;28;20007;-80
2022/09/08 00:10:19;;;;;;;;;;;16.30;99.90;;;;;;5082136;28;19916;-79
2022/09/08 00:12:47;;;;;;;;;;;16.30;99.90;;;;;;5082541;28;19958;-79
2022/09/08 00:15:13;;;;;;;;;;;16.30;99.90;;;;;;5081049;28;19916;-79
2022/09/08 00:17:38;;;;;;;;;;;16.40;99.90;;;;;;5081340;28;19968;-79
2022/09/08 00:20:05;;;;;;;;;;;16.30;99.90;;;;;;5081014;28;19976;-80
2022/09/08 00:22:31;;;;;;;;;;;16.30;99.90;;;;;;5079892;28;19916;-79
2022/09/08 00:24:57;;;;;;;;;;;16.40;99.90;;;;;;5079360;28;19920;-79
2022/09/08 00:27:22;;;;;;;;;;;16.30;99.90;;;;;;5080990;28;19923;-79
2022/09/08 00:29:48;;;;;;;;;;;16.30;99.90;;;;;;5078964;28;19916;-80
2022/09/08 00:32:14;;;;;;;;;;;16.30;99.90;;;;;;5080793;28;20245;-80
2022/09/08 00:34:39;;;;;;;;;;;16.30;99.90;;;;;;5080937;28;19923;-79
2022/09/08 00:37:05;;;;;;;;;;;16.30;99.90;;;;;;5079858;28;20494;-79
2022/09/08 00:39:30;;;;;;;;;;;16.40;99.90;;;;;;5080573;28;19920;-79
2022/09/08 00:41:56;;;;;;;;;;;16.30;99.90;;;;;;5081217;28;19916;-79
2022/09/08 00:44:37;;;;;;;;;;;16.20;99.90;;;;;;5079037;28;19920;-79
2022/09/08 00:47:03;;;;;;;;;;;16.10;99.90;;;;;;5080520;28;20070;-79
2022/09/08 00:49:29;;;;;;;;;;;16.10;99.90;;;;;;5080836;28;19922;-79
2022/09/08 00:51:56;;;;;;;;;;;16.10;99.90;;;;;;5080241;28;20292;-79
2022/09/08 00:54:22;;;;;;;;;;;16.10;99.90;;;;;;5080509;28;19946;-79
2022/09/08 00:56:48;;;;;;;;;;;16.20;99.90;;;;;;5077728;28;20376;-80
2022/09/08 00:59:15;;;;;;;;;;;16.20;99.90;;;;;;5078498;28;20308;-79
2022/09/08 01:01:43;;;;;;;;;;;16.20;99.90;;;;;;5079293;28;20207;-80
2022/09/08 01:04:09;;;;;;;;;;;16.20;99.90;;;;;;5082320;28;20794;-79
2022/09/08 01:14:59;;;;;;;;;;;15.80;99.90;;;;;;5080718;28;19924;-79
2022/09/08 01:17:29;;;;;;;;;;;15.70;99.90;;;;;;5081128;28;19917;-79
2022/09/08 01:19:56;;;;;;;;;;;15.70;99.90;;;;;;5079929;28;19928;-78
2022/09/08 01:22:25;;;;;;;;;;;15.60;99.90;;;;;;5080184;28;19916;-79
2022/09/08 01:24:55;;;;;;;;;;;15.60;99.90;;;;;;5079343;28;20008;-79
2022/09/08 01:27:28;;;;;;;;;;;15.50;99.90;;;;;;5079636;28;19935;-79
2022/09/08 01:29:58;;;;;;;;;;;15.60;99.90;;;;;;5080401;28;19946;-80
2022/09/08 01:32:26;;;;;;;;;;;15.40;99.90;;;;;;5080783;28;19923;-79
2022/09/08 01:34:52;;;;;;;;;;;15.50;99.90;;;;;;5080808;28;19916;-79
2022/09/08 01:37:17;;;;;;;;;;;15.50;99.90;;;;;;5080480;28;20414;-79
2022/09/08 01:39:43;;;;;;;;;;;15.60;99.90;;;;;;5080315;28;19928;-80
2022/09/08 01:42:09;;;;;;;;;;;15.70;99.90;;;;;;5080216;28;19916;-79
2022/09/08 01:44:34;;;;;;;;;;;15.60;99.90;;;;;;5081136;28;20316;-79
2022/09/08 01:47:00;;;;;;;;;;;15.50;99.90;;;;;;5080809;28;20421;-80
2022/09/08 01:49:25;;;;;;;;;;;15.60;99.90;;;;;;5080667;28;20372;-79
2022/09/08 01:51:51;;;;;;;;;;;15.70;99.90;;;;;;5079751;28;20452;-79
2022/09/08 01:54:17;;;;;;;;;;;15.60;99.90;;;;;;5080550;28;19996;-79
2022/09/08 01:56:42;;;;;;;;;;;15.70;99.90;;;;;;5078362;28;19920;-79
2022/09/08 01:59:08;;;;;;;;;;;15.50;99.90;;;;;;5079901;28;19938;-79
2022/09/08 02:01:33;;;;;;;;;;;15.50;99.90;;;;;;5079891;28;20487;-79
2022/09/08 02:03:59;;;;;;;;;;;15.50;99.90;;;;;;5083310;28;19996;-79
2022/09/08 02:06:24;;;;;;;;;;;15.50;99.90;;;;;;5084174;28;19916;-79
2022/09/08 02:08:50;;;;;;;;;;;15.40;99.90;;;;;;5075563;28;20571;-79
2022/09/08 02:11:16;;;;;;;;;;;15.30;99.90;;;;;;5084060;28;19936;-79
2022/09/08 02:13:42;;;;;;;;;;;15.20;99.90;;;;;;5107232;27;19917;-79
2022/09/08 02:16:09;;;;;;;;;;;15.10;99.90;;;;;;5107523;27;19969;-79
2022/09/08 02:18:35;;;;;;;;;;;15.00;99.90;;;;;;5083511;28;19916;-79
2022/09/08 02:21:27;;;;;;;;;;;15.00;99.90;;;;;;5083506;28;20381;-79
2022/09/08 02:23:53;;;;;;;;;;;15.00;99.90;;;;;;5079434;28;20749;-79
2022/09/08 02:26:21;;;;;;;;;;;15.00;99.90;;;;;;5081340;28;19917;-79
2022/09/08 02:28:47;;;;;;;;;;;14.90;99.90;;;;;;5082494;28;19916;-79
2022/09/08 02:31:13;;;;;;;;;;;15.10;99.90;;;;;;5083509;28;20384;-80
2022/09/08 02:33:40;;;;;;;;;;;15.10;99.90;;;;;;5083256;28;19928;-81
2022/09/08 02:36:05;;;;;;;;;;;15.00;99.90;;;;;;5083723;28;20081;-80
2022/09/08 02:38:31;;;;;;;;;;;14.80;99.90;;;;;;5083374;28;19953;-80
2022/09/08 02:40:57;;;;;;;;;;;14.80;99.90;;;;;;5079767;28;19924;-80
2022/09/08 02:43:23;;;;;;;;;;;14.70;99.90;;;;;;5084735;28;19916;-80
2022/09/08 02:45:49;;;;;;;;;;;14.80;99.90;;;;;;5084733;28;19916;-79
2022/09/08 02:48:14;;;;;;;;;;;14.80;99.90;;;;;;5082997;28;20564;-79
2022/09/08 02:50:40;;;;;;;;;;;14.70;99.90;;;;;;5083517;28;19916;-79
2022/09/08 02:53:05;;;;;;;;;;;14.80;99.90;;;;;;5070295;28;20385;-79
2022/09/08 02:55:31;;;;;;;;;;;14.80;99.90;;;;;;5081070;28;19923;-79
2022/09/08 02:57:57;;;;;;;;;;;14.70;99.90;;;;;;5081839;28;19989;-79
2022/09/08 03:00:30;;;;;;;;;;;14.70;99.90;;;;;;5082249;28;19924;-79
2022/09/08 03:02:56;;;;;;;;;;;14.90;99.90;;;;;;5083999;28;20281;-78
2022/09/08 03:05:22;;;;;;;;;;;14.90;99.90;;;;;;5082714;28;19964;-78
2022/09/08 03:07:47;;;;;;;;;;;15.00;99.90;;;;;;5082743;28;20016;-78
2022/09/08 03:10:14;;;;;;;;;;;15.00;99.90;;;;;;5079817;28;19923;-79
2022/09/08 03:12:40;;;;;;;;;;;15.00;99.90;;;;;;5085572;28;20683;-79
2022/09/08 03:15:06;;;;;;;;;;;15.10;99.90;;;;;;5083241;28;20007;-79
2022/09/08 03:17:32;;;;;;;;;;;15.20;99.90;;;;;;5082851;28;19920;-79
2022/09/08 03:19:57;;;;;;;;;;;15.20;99.90;;;;;;5083434;28;19924;-79
2022/09/08 03:22:23;;;;;;;;;;;15.00;99.90;;;;;;5082029;28;20078;-80
2022/09/08 03:24:48;;;;;;;;;;;15.00;99.90;;;;;;5080700;28;20011;-79
2022/09/08 03:27:14;;;;;;;;;;;14.80;99.90;;;;;;5082828;28;19916;-79
2022/09/08 03:29:39;;;;;;;;;;;14.70;99.90;;;;;;5083171;28;19926;-79
2022/09/08 03:32:05;;;;;;;;;;;14.70;99.90;;;;;;5080951;28;21541;-79
2022/09/08 03:34:30;;;;;;;;;;;14.80;99.90;;;;;;5082183;28;19916;-79
2022/09/08 03:36:56;;;;;;;;;;;14.90;99.90;;;;;;5082310;28;19927;-79
2022/09/08 03:39:21;;;;;;;;;;;14.90;99.90;;;;;;5083933;28;19924;-79
2022/09/08 03:41:47;;;;;;;;;;;15.00;99.90;;;;;;5084885;28;19918;-80
2022/09/08 03:44:12;;;;;;;;;;;15.20;99.90;;;;;;5084792;28;19998;-79
2022/09/08 03:46:38;;;;;;;;;;;15.30;99.90;;;;;;5083624;28;19929;-79
2022/09/08 03:49:04;;;;;;;;;;;15.50;99.90;;;;;;5083672;28;19966;-79
2022/09/08 03:51:30;;;;;;;;;;;15.50;99.90;;;;;;5083235;28;20442;-80
2022/09/08 03:54:46;;;;;;;;;;;15.50;99.90;;;;;;5082017;28;19916;-79
2022/09/08 03:56:43;;;;;;;;;;;15.40;99.90;;;;;;5081406;28;19931;-80
2022/09/08 03:59:09;;;;;;;;;;;15.20;99.90;;;;;;5082808;28;19924;-79
2022/09/08 04:01:35;;;;;;;;;;;15.10;99.90;;;;;;5082943;28;19920;-78
2022/09/08 04:04:01;;;;;;;;;;;15.10;99.90;;;;;;5081829;28;19938;-80
2022/09/08 04:06:28;;;;;;;;;;;15.10;99.90;;;;;;5083090;28;19916;-79
2022/09/08 04:08:53;;;;;;;;;;;15.10;99.90;;;;;;5082042;28;19916;-79
2022/09/08 04:11:19;;;;;;;;;;;15.20;99.90;;;;;;5082840;28;20354;-79
2022/09/08 04:13:46;;;;;;;;;;;15.30;99.90;;;;;;5083445;28;19916;-79
2022/09/08 04:16:11;;;;;;;;;;;15.40;99.90;;;;;;5081842;28;19912;-79
2022/09/08 04:18:37;;;;;;;;;;;15.40;99.90;;;;;;5082020;28;20290;-79
2022/09/08 04:21:04;;;;;;;;;;;15.50;99.90;;;;;;5081362;28;20570;-78
2022/09/08 04:23:29;;;;;;;;;;;15.60;99.90;;;;;;5080827;28;20339;-79
2022/09/08 04:25:56;;;;;;;;;;;15.60;99.90;;;;;;5079396;28;19966;-79
2022/09/08 04:28:21;;;;;;;;;;;15.50;99.90;;;;;;5082542;28;19915;-79
2022/09/08 04:30:47;;;;;;;;;;;15.20;99.90;;;;;;5082699;28;19961;-79
2022/09/08 04:33:12;;;;;;;;;;;15.10;99.90;;;;;;5081023;28;19927;-79
2022/09/08 04:35:38;;;;;;;;;;;15.00;99.90;;;;;;5082073;28;19923;-79
2022/09/08 04:38:03;;;;;;;;;;;14.90;99.90;;;;;;5081630;28;19943;-79
2022/09/08 04:40:29;;;;;;;;;;;15.00;99.90;;;;;;5082639;28;19924;-80
2022/09/08 04:42:54;;;;;;;;;;;15.10;99.90;;;;;;5080206;28;19920;-80
2022/09/08 04:45:20;;;;;;;;;;;15.00;99.90;;;;;;5081084;28;20369;-80
2022/09/08 04:47:45;;;;;;;;;;;15.10;99.90;;;;;;5079410;28;19919;-80
2022/09/08 04:50:11;;;;;;;;;;;15.30;99.90;;;;;;5080927;28;19912;-79
2022/09/08 04:52:36;;;;;;;;;;;15.20;99.90;;;;;;5080939;28;19993;-80
2022/09/08 04:55:02;;;;;;;;;;;15.20;99.90;;;;;;5080143;28;19920;-80
2022/09/08 04:57:28;;;;;;;;;;;15.30;99.90;;;;;;5081029;28;19923;-79
2022/09/08 04:59:54;;;;;;;;;;;15.30;99.90;;;;;;5079732;28;19934;-80
2022/09/08 05:02:19;;;;;;;;;;;15.30;99.90;;;;;;5081359;28;20371;-80
2022/09/08 05:04:45;;;;;;;;;;;15.40;99.90;;;;;;5082201;28;19944;-80
2022/09/08 05:07:10;;;;;;;;;;;15.20;99.90;;;;;;5084107;28;19957;-79
2022/09/08 05:09:36;;;;;;;;;;;15.20;99.90;;;;;;5073477;28;19956;-80
2022/09/08 05:12:01;;;;;;;;;;;15.20;99.90;;;;;;5063604;28;19913;-80
2022/09/08 05:14:27;;;;;;;;;;;15.20;99.90;;;;;;5063307;28;19912;-80
2022/09/08 05:16:53;;;;;;;;;;;15.10;99.90;;;;;;5063641;28;20339;-79
2022/09/08 05:19:18;;;;;;;;;;;15.20;99.90;;;;;;5065547;28;19916;-81
2022/09/08 05:21:44;;;;;;;;;;;15.30;99.90;;;;;;5095121;28;19966;-80
2022/09/08 05:24:09;;;;;;;;;;;15.30;99.90;;;;;;5061933;28;19969;-80
2022/09/08 05:26:35;;;;;;;;;;;15.40;99.90;;;;;;5079791;28;20334;-80
2022/09/08 05:29:03;;;;;;;;;;;15.30;99.90;;;;;;5059987;28;19925;-80
2022/09/08 05:31:29;;;;;;;;;;;15.40;99.90;;;;;;5066760;28;19924;-80
2022/09/08 05:33:56;;;;;;;;;;;15.30;99.90;;;;;;5068320;28;19916;-81
2022/09/08 05:36:23;;;;;;;;;;;15.30;99.90;;;;;;5063590;28;19912;-79
2022/09/08 05:38:48;;;;;;;;;;;15.50;99.90;;;;;;5072493;28;19939;-81
2022/09/08 05:41:14;;;;;;;;;;;15.60;99.90;;;;;;5087457;28;19924;-80
2022/09/08 05:43:40;;;;;;;;;;;15.60;99.90;;;;;;5073271;28;20419;-79
2022/09/08 05:46:06;;;;;;;;;;;15.60;99.90;;;;;;5082767;28;19916;-79
2022/09/08 05:48:32;;;;;;;;;;;15.60;99.90;;;;;;5084598;28;19931;-79
2022/09/08 05:50:57;;;;;;;;;;;15.40;99.90;;;;;;5084469;28;19968;-80
2022/09/08 05:53:23;;;;;;;;;;;15.40;99.90;;;;;;5083994;28;19916;-80
2022/09/08 05:56:09;;;;;;;;;;;15.50;99.90;;;;;;5084061;28;19984;-79
2022/09/08 05:58:35;;;;;;;;;;;15.50;99.90;;;;;;5085449;28;19989;-80
2022/09/08 06:01:03;;;;;;;;;;;15.60;99.90;;;;;;5080262;28;20393;-80
2022/09/08 06:03:28;;;;;;;;;;;15.60;99.90;;;;;;5084913;28;19931;-80
2022/09/08 06:05:54;;;;;;;;;;;15.60;99.90;;;;;;5074956;28;19916;-85
2022/09/08 06:08:21;;;;;;;;;;;15.70;99.90;;;;;;5064903;28;19916;-85
2022/09/08 06:10:52;;;;;;;;;;;15.80;99.90;;;;;;5085996;28;19912;-85
2022/09/08 06:13:18;;;;;;;;;;;15.50;99.90;;;;;;5087195;28;19912;-87
2022/09/08 06:15:44;;;;;;;;;;;15.40;99.90;;;;;;5084162;28;19916;-85
2022/09/08 06:18:09;;;;;;;;;;;15.90;99.90;;;;;;5083958;28;20019;-86
2022/09/08 06:20:35;;;;;;;;;;;16.20;99.90;;;;;;5083543;28;19959;-85
2022/09/08 06:23:01;;;;;;;;;;;16.30;99.90;;;;;;5081408;28;19921;-85
2022/09/08 06:25:27;;;;;;;;;;;16.40;99.90;;;;;;5080993;28;20611;-85
2022/09/08 06:27:58;;;;;;;;;;;16.30;99.90;;;;;;5082645;28;19919;-86
2022/09/08 06:30:24;;;;;;;;;;;16.10;99.90;;;;;;5081980;28;20397;-85
2022/09/08 06:32:56;;;;;;;;;;;15.90;99.90;;;;;;5082822;28;19924;-86
2022/09/08 06:35:35;;;;;;;;;;;16.00;99.90;;;;;;5083872;28;20049;-86
2022/09/08 06:38:05;;;;;;;;;;;16.00;99.90;;;;;;5083372;28;19923;-85
2022/09/08 06:40:36;;;;;;;;;;;15.90;99.90;;;;;;5083516;28;19924;-86
2022/09/08 06:43:05;;;;;;;;;;;16.10;99.90;;;;;;5084291;28;19919;-85
2022/09/08 06:45:35;;;;;;;;;;;16.10;99.90;;;;;;5084281;28;20391;-85
2022/09/08 06:48:20;;;;;;;;;;;16.30;99.90;;;;;;5085848;28;20043;-88
2022/09/08 06:50:54;;;;;;;;;;;16.40;99.90;;;;;;5064209;28;19947;-86
2022/09/08 06:53:22;;;;;;;;;;;16.30;99.90;;;;;;5086590;28;20392;-85
2022/09/08 06:56:01;;;;;;;;;;;15.80;99.90;;;;;;5084979;28;19991;-84
2022/09/08 06:58:29;;;;;;;;;;;15.70;99.90;;;;;;5118935;27;19924;-79
2022/09/08 07:00:58;;;;;;;;;;;15.90;99.90;;;;;;5075211;28;19921;-79
2022/09/08 07:03:33;;;;;;;;;;;16.20;99.90;;;;;;5084315;28;20031;-79
2022/09/08 07:06:08;;;;;;;;;;;16.30;99.90;;;;;;5070662;28;19916;-80
2022/09/08 07:08:53;;;;;;;;;;;16.30;99.90;;;;;;5086236;28;19916;-81
2022/09/08 07:11:18;;;;;;;;;;;16.50;99.90;;;;;;5065652;28;19912;-80
2022/09/08 07:13:59;;;;;;;;;;;16.60;99.90;;;;;;5065769;28;19913;-80
2022/09/08 07:16:25;;;;;;;;;;;16.40;99.90;;;;;;5063718;28;19912;-80
2022/09/08 07:18:56;;;;;;;;;;;16.50;99.90;;;;;;5065709;28;19923;-81
2022/09/08 07:21:27;;;;;;;;;;;16.50;99.90;;;;;;5065531;28;19927;-81
2022/09/08 07:23:54;;;;;;;;;;;16.60;99.90;;;;;;5064468;28;19998;-80
2022/09/08 07:26:23;;;;;;;;;;;16.60;99.90;;;;;;5063715;28;19913;-81
2022/09/08 07:28:51;;;;;;;;;;;16.70;99.90;;;;;;5065841;28;19920;-81
2022/09/08 07:31:24;;;;;;;;;;;16.80;99.90;;;;;;5063547;28;19913;-80
2022/09/08 07:33:52;;;;;;;;;;;16.80;99.90;;;;;;5065096;28;20207;-80
2022/09/08 07:36:25;;;;;;;;;;;17.10;99.90;;;;;;5065216;28;20007;-80
2022/09/08 07:38:54;;;;;;;;;;;17.00;99.90;;;;;;5065084;28;20389;-81
2022/09/08 07:41:24;;;;;;;;;;;17.00;99.90;;;;;;5063355;28;20043;-81
2022/09/08 07:43:53;;;;;;;;;;;17.20;99.90;;;;;;5065056;28;20357;-81
2022/09/08 07:46:19;;;;;;;;;;;17.20;99.90;;;;;;5064940;28;19913;-81
2022/09/08 07:48:47;;;;;;;;;;;17.40;99.90;;;;;;5064899;28;19923;-80
2022/09/08 07:51:14;;;;;;;;;;;17.40;99.90;;;;;;5096484;28;20373;-80
2022/09/08 07:53:40;;;;;;;;;;;17.30;99.90;;;;;;5064537;28;20347;-80
2022/09/08 07:56:26;;;;;;;;;;;17.80;99.90;;;;;;5064991;28;19926;-80
2022/09/08 07:59:10;;;;;;;;;;;18.30;99.90;;;;;;5040822;28;20401;-80
2022/09/08 08:01:36;;;;;;;;;;;21.70;99.90;;;;;;5040464;28;20147;-81
2022/09/08 08:04:02;;;;;;;;;;;21.00;99.90;;;;;;5041848;28;20547;-81
2022/09/08 08:06:39;;;;;;;;;;;21.00;99.90;;;;;;5041425;28;19920;-80
2022/09/08 08:09:23;;;;;;;;;;;21.50;99.90;;;;;;5041362;28;19913;-80
2022/09/08 08:12:07;;;;;;;;;;;21.00;99.90;;;;;;5041173;28;20035;-80
2022/09/08 08:14:35;;;;;;;;;;;23.50;99.90;;;;;;5024112;28;19913;-81
2022/09/08 08:17:01;;;;;;;;;;;25.50;99.90;;;;;;5041180;28;20015;-80
2022/09/08 08:19:32;;;;;;;;;;;26.60;99.90;;;;;;5041689;28;20401;-80
2022/09/08 08:22:05;;;;;;;;;;;27.00;99.90;;;;;;5024548;28;20019;-81
2022/09/08 08:24:36;;;;;;;;;;;27.60;97.80;;;;;;5040922;28;20082;-81
2022/09/08 08:27:06;;;;;;;;;;;24.70;99.10;;;;;;5040627;28;19960;-80
2022/09/08 08:29:47;;;;;;;;;;;23.20;99.90;;;;;;5041348;28;19954;-81
2022/09/08 08:32:35;;;;;;;;;;;25.10;99.80;;;;;;5041510;28;20039;-81
2022/09/08 08:35:19;;;;;;;;;;;24.90;99.90;;;;;;5042938;28;19913;-81
2022/09/08 08:37:47;;;;;;;;;;;28.20;96.50;;;;;;5064692;28;19913;-82
2022/09/08 08:40:38;;;;;;;;;;;28.80;93.60;;;;;;5064071;28;19924;-80
2022/09/08 08:43:04;;;;;;;;;;;25.80;95.60;;;;;;5040727;28;19955;-81
2022/09/08 08:45:39;;;;;;;;;;;25.30;98.00;;;;;;5041255;28;20068;-81
2022/09/08 08:48:07;;;;;;;;;;;26.00;97.40;;;;;;5040964;28;19936;-81
2022/09/08 08:50:51;;;;;;;;;;;24.60;98.20;;;;;;5041306;28;19920;-80
2022/09/08 08:53:31;;;;;;;;;;;27.60;96.00;;;;;;5041306;28;19978;-81
2022/09/08 08:56:03;;;;;;;;;;;29.10;92.90;;;;;;5040185;28;19912;-81
2022/09/08 08:58:34;;;;;;;;;;;29.30;92.30;;;;;;5040530;28;19917;-80
2022/09/08 09:01:15;;;;;;;;;;;29.20;89.10;;;;;;5041567;28;20440;-81
2022/09/08 09:03:46;;;;;;;;;;;28.60;90.10;;;;;;5056566;28;19991;-80
2022/09/08 09:06:12;;;;;;;;;;;27.30;91.50;;;;;;5035561;28;19917;-81
2022/09/08 09:08:43;;;;;;;;;;;28.10;92.80;;;;;;5041552;28;20773;-80
2022/09/08 09:11:18;;;;;;;;;;;29.30;90.50;;;;;;5040731;28;19925;-81
2022/09/08 09:14:01;;;;;;;;;;;30.70;86.20;;;;;;5044775;28;19940;-80
2022/09/08 09:16:27;;;;;;;;;;;29.90;87.10;;;;;;5043553;28;19924;-81
2022/09/08 09:19:01;;;;;;;;;;;29.80;83.40;;;;;;5038175;28;19920;-81
2022/09/08 09:21:45;;;;;;;;;;;29.50;83.20;;;;;;5064818;28;20314;-80
2022/09/08 09:24:20;;;;;;;;;;;29.90;82.60;;;;;;5060957;28;19917;-81
2022/09/08 09:26:51;;;;;;;;;;;28.40;84.70;;;;;;5074244;28;19963;-79
2022/09/08 09:29:20;;;;;;;;;;;28.00;87.10;;;;;;5063996;28;19912;-80
2022/09/08 09:32:05;;;;;;;;;;;27.90;89.20;;;;;;5077828;28;19916;-80
2022/09/08 09:34:33;;;;;;;;;;;26.70;90.00;;;;;;5074667;28;19950;-79
2022/09/08 09:37:21;;;;;;;;;;;25.90;91.10;;;;;;5079183;28;19923;-80
2022/09/08 09:40:06;;;;;;;;;;;25.50;91.30;;;;;;5081144;28;19924;-81
2022/09/08 09:42:55;;;;;;;;;;;25.60;92.00;;;;;;5073083;28;19919;-80
2022/09/08 09:45:47;;;;;;;;;;;25.00;93.00;;;;;;5059823;28;20425;-79
2022/09/08 09:48:17;;;;;;;;;;;25.30;93.60;;;;;;5045042;28;20047;-79
2022/09/08 09:50:42;;;;;;;;;;;24.70;92.70;;;;;;5075319;28;19935;-78
2022/09/08 09:53:27;;;;;;;;;;;24.90;92.80;;;;;;5070063;28;20390;-79
2022/09/08 09:55:52;;;;;;;;;;;24.80;92.90;;;;;;5063801;28;19912;-79
2022/09/08 09:58:36;;;;;;;;;;;25.40;93.30;;;;;;5066829;28;19923;-79
2022/09/08 10:01:20;;;;;;;;;;;25.20;93.50;;;;;;5073110;28;19920;-79
2022/09/08 10:03:55;;;;;;;;;;;25.10;93.10;;;;;;5045161;28;19908;-79
2022/09/08 10:06:24;;;;;;;;;;;24.60;93.40;;;;;;5063354;28;19916;-79
2022/09/08 10:09:09;;;;;;;;;;;25.10;93.50;;;;;;5062983;28;19919;-79
2022/09/08 10:11:57;;;;;;;;;;;25.20;93.50;;;;;;5062814;28;20369;-79
2022/09/08 10:14:22;;;;;;;;;;;24.30;92.90;;;;;;5062402;28;19998;-80
2022/09/08 10:16:48;;;;;;;;;;;25.00;93.10;;;;;;5062877;28;20403;-81
2022/09/08 10:19:26;;;;;;;;;;;24.40;93.90;;;;;;5063096;28;19912;-78
2022/09/08 10:22:26;;;;;;;;;;;24.20;93.50;;;;;;5063348;28;20813;-79
2022/09/08 10:25:01;;;;;;;;;;;24.40;92.80;;;;;;5026926;28;20412;-82
2022/09/08 10:27:45;;;;;;;;;;;24.70;93.10;;;;;;5025750;28;19921;-79
2022/09/08 10:30:18;;;;;;;;;;;24.70;93.60;;;;;;5028646;28;19928;-78
2022/09/08 10:33:03;;;;;;;;;;;24.40;93.90;;;;;;5007709;28;19917;-79
2022/09/08 10:35:54;;;;;;;;;;;25.10;93.60;;;;;;5023777;28;20120;-79
2022/09/08 10:38:26;;;;;;;;;;;24.80;92.80;;;;;;5042907;28;20382;-80
2022/09/08 10:40:51;;;;;;;;;;;24.20;93.80;;;;;;5028526;28;19932;-79
2022/09/08 10:43:35;;;;;;;;;;;23.60;94.60;;;;;;5016205;28;19917;-79
2022/09/08 10:46:20;;;;;;;;;;;23.20;94.80;;;;;;5026953;28;20460;-78
2022/09/08 10:49:04;;;;;;;;;;;23.10;94.90;;;;;;5043320;28;20002;-79
2022/09/08 10:51:38;;;;;;;;;;;23.40;95.20;;;;;;5033833;28;19943;-79
2022/09/08 10:54:09;;;;;;;;;;;23.50;95.50;;;;;;5028330;28;19909;-79
2022/09/08 10:56:36;;;;;;;;;;;23.40;95.20;;;;;;5036621;28;20008;-79
2022/09/08 10:59:11;;;;;;;;;;;23.60;95.20;;;;;;5064870;28;19924;-79
2022/09/08 11:01:39;;;;;;;;;;;23.90;94.30;;;;;;5050753;28;20389;-79
2022/09/08 11:04:32;;;;;;;;;;;24.20;95.40;;;;;;5080649;28;19961;-80
2022/09/08 11:07:11;;;;;;;;;;;24.30;94.20;;;;;;5083263;28;20077;-80
2022/09/08 11:09:39;;;;;;;;;;;24.70;93.20;;;;;;5066547;28;20030;-79
2022/09/08 11:12:15;;;;;;;;;;;24.30;93.00;;;;;;5083227;28;20002;-79
2022/09/08 11:14:54;;;;;;;;;;;24.00;93.00;;;;;;5095872;28;20564;-80
2022/09/08 11:17:27;;;;;;;;;;;24.10;92.40;;;;;;5086560;28;19912;-81
2022/09/08 11:20:02;;;;;;;;;;;24.30;92.20;;;;;;5084688;28;19931;-80
2022/09/08 11:22:47;;;;;;;;;;;24.00;93.30;;;;;;5073417;28;19916;-80
2022/09/08 11:25:20;;;;;;;;;;;23.70;94.00;;;;;;5066063;28;19916;-80
2022/09/08 11:27:48;;;;;;;;;;;23.70;94.60;;;;;;5065727;28;20007;-79
2022/09/08 11:30:17;;;;;;;;;;;23.40;95.30;;;;;;5066283;28;19916;-80
2022/09/08 11:32:53;;;;;;;;;;;23.40;95.00;;;;;;5065793;28;20370;-79
2022/09/08 11:35:26;;;;;;;;;;;23.50;94.70;;;;;;5065814;28;19921;-80
2022/09/08 11:37:55;;;;;;;;;;;23.30;95.00;;;;;;5064886;28;20009;-79
2022/09/08 11:40:26;;;;;;;;;;;22.70;94.60;;;;;;5065523;28;19931;-79
2022/09/08 11:43:01;;;;;;;;;;;22.60;95.30;;;;;;5065313;28;19918;-79
2022/09/08 11:45:35;;;;;;;;;;;22.20;96.00;;;;;;5065341;28;20003;-79
2022/09/08 11:48:19;;;;;;;;;;;21.50;96.90;;;;;;5046984;28;19913;-80
2022/09/08 11:50:50;;;;;;;;;;;21.50;97.40;;;;;;5065278;28;19912;-80
2022/09/08 11:53:42;;;;;;;;;;;21.90;97.20;;;;;;5064889;28;19908;-79
2022/09/08 11:56:23;;;;;;;;;;;22.20;96.70;;;;;;5042573;28;19934;-80
2022/09/08 11:59:13;;;;;;;;;;;22.60;96.50;;;;;;5042702;28;19925;-79
2022/09/08 12:01:39;;;;;;;;;;;22.70;96.30;;;;;;5041670;28;20131;-79
2022/09/08 12:04:05;;;;;;;;;;;22.40;97.00;;;;;;5042630;28;19913;-79
2022/09/08 12:07:00;;;;;;;;;;;22.40;96.70;;;;;;5042083;28;19924;-79
2022/09/08 12:09:43;;;;;;;;;;;22.40;98.00;;;;;;4963879;28;20567;-78
2022/09/08 12:12:28;;;;;;;;;;;22.40;96.50;;;;;;4963899;28;19914;-79
2022/09/08 12:14:53;;;;;;;;;;;22.20;97.50;;;;;;4963784;28;19960;-79
2022/09/08 12:17:45;;;;;;;;;;;22.00;98.50;;;;;;4964076;28;19914;-79
2022/09/08 12:20:13;;;;;;;;;;;22.00;97.60;;;;;;4963100;28;20012;-79
2022/09/08 12:23:09;;;;;;;;;;;21.90;97.40;;;;;;4963415;28;19921;-78
2022/09/08 12:25:53;;;;;;;;;;;22.00;97.60;;;;;;4954489;28;19957;-80
2022/09/08 12:28:28;;;;;;;;;;;22.50;97.80;;;;;;4963198;28;19914;-79
2022/09/08 12:31:18;;;;;;;;;;;22.80;96.60;;;;;;4963341;28;19953;-79
2022/09/08 12:33:47;;;;;;;;;;;22.90;95.70;;;;;;4947649;28;19986;-79
2022/09/08 12:36:12;;;;;;;;;;;23.20;95.60;;;;;;4944067;29;19934;-79
2022/09/08 12:38:59;;;;;;;;;;;23.70;95.30;;;;;;4943574;28;19949;-78
2022/09/08 12:41:36;;;;;;;;;;;23.60;95.00;;;;;;4963973;28;20500;-79
2022/09/08 12:44:11;;;;;;;;;;;23.80;95.80;;;;;;4966098;28;20037;-79
2022/09/08 12:46:56;;;;;;;;;;;23.60;96.30;;;;;;5012395;28;19913;-78
2022/09/08 12:49:29;;;;;;;;;;;23.20;95.30;;;;;;5020713;28;19920;-77
2022/09/08 12:51:59;;;;;;;;;;;23.20;96.60;;;;;;5005029;28;19955;-78
2022/09/08 12:54:24;;;;;;;;;;;23.20;97.70;;;;;;5021448;28;19927;-78
2022/09/08 12:57:08;;;;;;;;;;;22.90;96.70;;;;;;5021216;28;20027;-79
2022/09/08 12:59:37;;;;;;;;;;;22.60;96.60;;;;;;5020542;28;19995;-79
2022/09/08 13:02:03;;;;;;;;;;;22.70;97.50;;;;;;5038475;28;19963;-79
2022/09/08 13:04:35;;;;;;;;;;;23.10;97.50;;;;;;5040972;28;19944;-79
2022/09/08 13:07:09;;;;;;;;;;;23.30;95.90;;;;;;5024302;28;19913;-79
2022/09/08 13:09:40;;;;;;;;;;;23.20;96.30;;;;;;5024429;28;19912;-78
2022/09/08 13:12:34;;;;;;;;;;;23.10;95.60;;;;;;5040903;28;20176;-79
2022/09/08 13:15:00;;;;;;;;;;;23.20;97.50;;;;;;4982209;28;19922;-79
2022/09/08 13:17:36;;;;;;;;;;;23.20;96.70;;;;;;4980754;28;19960;-78
2022/09/08 13:20:17;;;;;;;;;;;23.30;96.70;;;;;;4962497;28;20419;-79
2022/09/08 13:22:57;;;;;;;;;;;23.10;96.40;;;;;;4962617;28;19914;-80
2022/09/08 13:25:43;;;;;;;;;;;23.20;98.30;;;;;;4961471;28;20028;-79
2022/09/08 13:28:08;;;;;;;;;;;23.20;98.40;;;;;;4962300;28;20442;-79
2022/09/08 13:30:33;;;;;;;;;;;23.20;97.70;;;;;;4946515;28;19933;-79
2022/09/08 13:33:31;;;;;;;;;;;22.80;97.20;;;;;;4962116;28;19915;-79
2022/09/08 13:36:04;;;;;;;;;;;22.90;97.30;;;;;;4962519;28;19911;-78
2022/09/08 13:38:35;;;;;;;;;;;23.60;97.60;;;;;;4961225;28;20667;-79
2022/09/08 13:41:20;;;;;;;;;;;24.00;95.40;;;;;;4961992;28;19926;-79
2022/09/08 13:44:08;;;;;;;;;;;23.90;95.50;;;;;;4978162;28;19914;-78
2022/09/08 13:46:33;;;;;;;;;;;24.30;94.50;;;;;;4961893;28;19918;-80
2022/09/08 13:49:12;;;;;;;;;;;24.00;95.00;;;;;;4962406;28;19962;-79
2022/09/08 13:51:41;;;;;;;;;;;24.30;96.30;;;;;;4989064;28;19917;-80
2022/09/08 13:54:32;;;;;;;;;;;24.00;94.50;;;;;;4981681;28;19922;-78
2022/09/08 13:57:09;;;;;;;;;;;23.60;94.90;;;;;;4981513;28;20010;-78
2022/09/08 13:59:46;;;;;;;;;;;23.10;95.40;;;;;;5011820;28;19925;-78
2022/09/08 14:02:34;;;;;;;;;;;22.90;95.70;;;;;;5023724;28;20774;-79
2022/09/08 14:05:04;;;;;;;;;;;23.10;95.40;;;;;;5007704;28;19976;-79
2022/09/08 14:07:31;;;;;;;;;;;23.50;95.50;;;;;;5021488;28;19913;-79
2022/09/08 14:10:13;;;;;;;;;;;23.70;94.20;;;;;;5024290;28;19943;-79
2022/09/08 14:12:48;;;;;;;;;;;24.00;93.80;;;;;;5064083;28;20027;-79
2022/09/08 14:15:40;;;;;;;;;;;23.90;94.10;;;;;;5066912;28;19966;-79
2022/09/08 14:18:08;;;;;;;;;;;23.60;94.40;;;;;;5063604;28;20455;-79
2022/09/08 14:20:37;;;;;;;;;;;23.40;94.40;;;;;;5062132;28;20034;-78
2022/09/08 14:23:21;;;;;;;;;;;23.00;94.60;;;;;;5069844;28;19916;-78
2022/09/08 14:25:49;;;;;;;;;;;22.80;95.90;;;;;;5075767;28;19916;-79
2022/09/08 14:28:17;;;;;;;;;;;22.60;95.30;;;;;;5087097;28;20003;-79
2022/09/08 14:30:48;;;;;;;;;;;22.90;95.90;;;;;;5083230;28;20571;-79
2022/09/08 14:33:43;;;;;;;;;;;23.20;95.60;;;;;;5087023;28;19912;-78
2022/09/08 14:36:14;;;;;;;;;;;22.90;95.50;;;;;;5080470;28;19916;-78
2022/09/08 14:38:42;;;;;;;;;;;23.00;95.50;;;;;;5083450;28;19916;-78
2022/09/08 14:41:14;;;;;;;;;;;22.80;94.50;;;;;;5073337;28;19930;-79
2022/09/08 14:43:48;;;;;;;;;;;22.70;95.30;;;;;;5077943;28;19981;-81
2022/09/08 14:46:17;;;;;;;;;;;22.80;95.00;;;;;;5086187;28;19912;-78
2022/09/08 14:49:00;;;;;;;;;;;22.70;93.60;;;;;;5084956;28;20604;-79